sim
Sign-in with your pilot id or email,
or register
Callsign
Passwort

Schedule Details

Flight Number: OEO4978
Departure: Berlin Tegel Airport (EDDT) at 12:25
Arrival: Thessaloniki International Airport (LGTS) at 14:55

Weather Information
Getting current METAR information for EDDT 192220Z 03005KT 350V070 CAVOK 11/M02 Q1032
Getting current METAR information for LGTS 192220Z 14004KT 9999 FEW020 13/09 Q1023 NOSIG

Schedule Frequency

Route Map